createdAt,value
2022-08-05T14:19:20.931Z,32.90
2022-08-05T14:22:10.388Z,31.60
2022-08-05T14:24:40.146Z,31.20
2022-08-05T14:27:18.141Z,32.90
2022-08-05T14:29:51.334Z,35.20
2022-08-05T14:32:27.052Z,35.30
2022-08-05T14:34:57.923Z,34.80
2022-08-05T14:37:47.392Z,34.00
2022-08-05T14:40:16.905Z,33.40
2022-08-05T14:42:45.405Z,32.90
2022-08-05T14:45:13.755Z,32.50
2022-08-05T14:48:03.237Z,32.40
2022-08-05T14:50:33.193Z,32.50
2022-08-05T14:53:08.044Z,32.40
2022-08-05T14:55:39.524Z,33.20
2022-08-05T14:58:12.144Z,33.80
2022-08-05T15:00:58.212Z,34.20
2022-08-05T15:03:33.310Z,34.40
2022-08-05T15:06:12.664Z,34.00
2022-08-05T15:09:01.576Z,33.60
2022-08-05T15:11:51.173Z,33.40
2022-08-05T15:14:33.289Z,33.90
2022-08-05T15:17:04.686Z,33.90
2022-08-05T15:19:33.232Z,34.00
2022-08-05T15:22:02.912Z,34.40
2022-08-05T15:24:31.924Z,35.10
2022-08-05T15:27:00.031Z,34.90
2022-08-05T15:29:30.107Z,34.60
2022-08-05T15:32:03.022Z,34.90
2022-08-05T15:34:33.559Z,35.90
2022-08-05T15:37:06.281Z,36.70
2022-08-05T15:41:00.099Z,37.60
2022-08-05T15:42:56.189Z,38.20
2022-08-05T15:45:38.189Z,38.40
2022-08-05T15:48:07.538Z,38.20
2022-08-05T15:50:36.087Z,37.90
2022-08-05T15:53:09.214Z,38.00
2022-08-05T15:56:02.743Z,38.20
2022-08-05T15:58:29.299Z,38.30
2022-08-05T16:01:17.032Z,38.50
2022-08-05T16:03:50.642Z,38.40
2022-08-05T16:06:22.766Z,38.30
2022-08-05T16:08:55.312Z,37.90
2022-08-05T16:11:42.898Z,37.50
2022-08-05T16:14:17.432Z,37.40
2022-08-05T16:16:47.309Z,37.20
2022-08-05T16:19:25.334Z,37.00
2022-08-05T16:22:04.608Z,36.40
2022-08-05T16:27:46.968Z,36.20
2022-08-05T16:30:25.641Z,36.00
2022-08-05T16:32:55.674Z,35.70
2022-08-05T16:35:28.145Z,35.60
2022-08-05T16:38:03.173Z,34.90
2022-08-05T16:40:47.894Z,34.90
2022-08-05T16:43:23.725Z,34.70
2022-08-05T16:46:03.445Z,34.90
2022-08-05T16:48:37.617Z,35.20
2022-08-05T16:51:09.853Z,35.40
2022-08-05T16:54:04.304Z,35.60
2022-08-05T16:56:31.003Z,35.70
2022-08-05T16:59:00.960Z,35.70
2022-08-05T17:01:54.430Z,35.60
2022-08-05T17:04:26.665Z,35.30
2022-08-05T17:06:59.964Z,34.50
2022-08-05T17:09:29.612Z,33.50
2022-08-05T17:12:00.322Z,32.50
2022-08-05T17:14:37.730Z,31.20
2022-08-05T17:17:14.379Z,31.10
2022-08-05T17:19:46.131Z,30.60
2022-08-05T17:22:17.931Z,29.90
2022-08-05T17:24:57.852Z,29.70
2022-08-05T17:30:04.301Z,29.70
2022-08-05T17:32:35.667Z,29.70
2022-08-05T17:35:04.259Z,29.60
2022-08-05T17:37:41.771Z,29.70
2022-08-05T17:40:16.139Z,29.20
2022-08-05T17:42:51.094Z,29.00
2022-08-05T17:47:54.419Z,28.50
2022-08-05T17:53:00.176Z,28.20
2022-08-05T17:55:37.416Z,28.00
2022-08-05T17:58:12.443Z,27.70
2022-08-05T18:00:45.042Z,27.60
2022-08-05T18:06:12.332Z,27.20
2022-08-05T18:08:45.867Z,27.00
2022-08-05T18:11:24.253Z,26.90
2022-08-05T18:14:07.267Z,26.80
2022-08-05T18:16:43.736Z,26.70
2022-08-05T18:19:22.956Z,26.60
2022-08-05T18:22:09.165Z,26.60
2022-08-05T18:24:40.084Z,26.50
2022-08-05T18:27:12.403Z,26.50
2022-08-05T18:34:48.003Z,26.10
2022-08-05T18:37:16.958Z,25.90
2022-08-05T18:41:50.522Z,25.80
2022-08-05T18:45:21.886Z,25.70
2022-08-05T18:47:56.390Z,25.60
2022-08-05T18:50:46.418Z,25.60
2022-08-05T18:53:20.593Z,25.40
2022-08-05T18:55:53.212Z,25.40
2022-08-05T18:58:28.568Z,25.30
2022-08-05T19:00:58.580Z,25.30
2022-08-05T19:03:53.099Z,25.00
2022-08-05T19:06:21.870Z,24.90
2022-08-05T19:11:21.950Z,24.70
2022-08-05T19:14:01.044Z,24.50
2022-08-05T19:16:46.801Z,24.60
2022-08-05T19:19:15.952Z,24.40
2022-08-05T19:21:51.465Z,24.30
2022-08-05T19:24:34.880Z,24.30
2022-08-05T19:29:36.302Z,24.10
2022-08-05T19:37:10.688Z,24.00
2022-08-05T19:39:45.327Z,23.90
2022-08-05T19:42:35.479Z,23.90
2022-08-05T19:45:05.848Z,23.90
2022-08-05T19:47:37.496Z,23.80
2022-08-05T19:50:07.761Z,23.70
2022-08-05T19:52:38.887Z,23.60
2022-08-05T19:56:11.568Z,23.40
2022-08-05T19:58:19.329Z,23.40
2022-08-05T20:00:44.461Z,23.20
2022-08-05T20:03:14.339Z,23.20
2022-08-05T20:05:43.193Z,23.00
2022-08-05T20:08:18.847Z,22.90
2022-08-05T20:10:49.347Z,22.80
2022-08-05T20:13:18.458Z,22.70
2022-08-05T20:16:07.156Z,22.70
2022-08-05T20:18:36.996Z,22.60
2022-08-05T20:21:06.702Z,22.50
2022-08-05T20:23:39.431Z,22.30
2022-08-05T20:26:19.875Z,22.20
2022-08-05T20:28:50.985Z,22.20
2022-08-05T20:31:21.949Z,22.20
2022-08-05T20:33:53.720Z,22.40
2022-08-05T20:36:24.085Z,22.00
2022-08-05T20:38:53.649Z,22.00
2022-08-05T20:41:26.947Z,21.90
2022-08-05T20:43:58.590Z,21.90
2022-08-05T20:46:28.761Z,21.80
2022-08-05T20:48:59.129Z,21.70
2022-08-05T20:51:27.620Z,21.60
2022-08-05T20:53:57.066Z,21.60
2022-08-05T20:56:34.127Z,21.50
2022-08-05T20:59:19.322Z,21.40
2022-08-05T21:01:57.995Z,21.20
2022-08-05T21:04:27.813Z,21.20
2022-08-05T21:06:56.224Z,21.20
2022-08-05T21:09:24.585Z,21.10
2022-08-05T21:12:10.128Z,20.70
2022-08-05T21:14:39.951Z,21.00
2022-08-05T21:17:08.303Z,21.10
2022-08-05T21:19:46.880Z,21.10
2022-08-05T21:22:17.711Z,21.20
2022-08-05T21:24:51.913Z,21.20
2022-08-05T21:27:25.013Z,21.20
2022-08-05T21:29:54.222Z,21.20
2022-08-05T21:32:24.416Z,21.10
2022-08-05T21:35:16.752Z,21.10
2022-08-05T21:37:48.091Z,20.90
2022-08-05T21:40:21.925Z,20.80
2022-08-05T21:42:51.652Z,20.90
2022-08-05T21:48:00.821Z,20.80
2022-08-05T21:50:30.777Z,20.80
2022-08-05T21:53:08.305Z,20.80
2022-08-05T21:56:04.909Z,20.60
2022-08-05T21:58:33.509Z,20.60
2022-08-05T22:01:01.847Z,20.60
2022-08-05T22:03:51.799Z,20.60
2022-08-05T22:06:22.731Z,20.60
2022-08-05T22:08:52.475Z,20.60
2022-08-05T22:11:34.370Z,20.50
2022-08-05T22:14:34.068Z,20.50
2022-08-05T22:16:57.003Z,20.40
2022-08-05T22:20:00.227Z,20.30
2022-08-05T22:22:26.868Z,20.20
2022-08-05T22:25:21.152Z,20.10
2022-08-05T22:28:05.022Z,20.00
2022-08-05T22:30:53.545Z,20.00
2022-08-05T22:33:56.911Z,19.90
2022-08-05T22:36:15.151Z,19.90
2022-08-05T22:38:48.465Z,19.80
2022-08-05T22:42:04.480Z,19.70
2022-08-05T22:44:06.854Z,19.70
2022-08-05T22:46:40.011Z,19.60
2022-08-05T22:49:23.089Z,19.50
2022-08-05T22:52:06.718Z,19.50
2022-08-05T22:54:37.967Z,19.40
2022-08-05T22:57:07.401Z,19.40
2022-08-05T22:59:45.975Z,19.30
2022-08-05T23:02:17.612Z,19.20
2022-08-05T23:04:51.988Z,19.10
2022-08-05T23:07:21.865Z,19.10
2022-08-05T23:09:58.281Z,19.10
2022-08-05T23:12:32.921Z,19.00
2022-08-05T23:15:03.068Z,18.80
2022-08-05T23:17:34.437Z,18.60
2022-08-05T23:20:10.501Z,18.50
2022-08-05T23:22:47.719Z,18.40
2022-08-05T23:25:52.476Z,18.40
2022-08-05T23:28:07.821Z,18.30
2022-08-05T23:30:40.428Z,18.30
2022-08-05T23:33:16.486Z,18.30
2022-08-05T23:35:56.208Z,18.20
2022-08-05T23:38:26.765Z,18.20
2022-08-05T23:40:56.615Z,17.70
2022-08-05T23:44:02.976Z,17.70
2022-08-05T23:46:19.839Z,17.50
2022-08-05T23:49:00.941Z,17.10
2022-08-05T23:51:52.325Z,17.10
2022-08-05T23:54:25.207Z,16.80
2022-08-05T23:56:58.241Z,16.50
